createdAt,value
2018-04-18T00:02:11.994Z,101409.20
2018-04-18T00:04:39.367Z,101411.36
2018-04-18T00:07:06.768Z,101417.54
2018-04-18T00:09:34.211Z,101416.91
2018-04-18T00:12:01.583Z,101424.70
2018-04-18T00:14:28.964Z,101421.56
2018-04-18T00:16:56.335Z,101414.26
2018-04-18T00:19:23.735Z,101420.81
2018-04-18T00:21:51.141Z,101416.38
2018-04-18T00:24:18.543Z,101422.72
2018-04-18T00:26:46.122Z,101431.65
2018-04-18T00:29:14.338Z,101423.52
2018-04-18T00:31:41.720Z,101436.24
2018-04-18T00:34:09.171Z,101432.93
2018-04-18T00:36:36.578Z,101434.34
2018-04-18T00:39:03.994Z,101431.94
2018-04-18T00:41:31.497Z,101440.44
2018-04-18T00:43:58.908Z,101440.42
2018-04-18T00:46:26.314Z,101439.87
2018-04-18T00:48:53.712Z,101444.12
2018-04-18T00:51:21.097Z,101443.67
2018-04-18T00:53:48.488Z,101442.39
2018-04-18T00:56:16.002Z,101444.42
2018-04-18T00:58:43.385Z,101446.50
2018-04-18T01:01:10.759Z,101436.65
2018-04-18T01:03:38.171Z,101443.31
2018-04-18T01:06:05.559Z,101443.33
2018-04-18T01:08:32.983Z,101444.26
2018-04-18T01:11:00.385Z,101444.70
2018-04-18T01:13:27.764Z,101446.58
2018-04-18T01:15:55.173Z,101442.42
2018-04-18T01:18:22.551Z,101443.81
2018-04-18T01:20:49.950Z,101445.89
2018-04-18T01:23:17.440Z,101446.03
2018-04-18T01:25:44.856Z,101445.53
2018-04-18T01:28:12.233Z,101443.07
2018-04-18T01:30:39.614Z,101445.96
2018-04-18T01:33:07.028Z,101446.09
2018-04-18T01:35:34.427Z,101445.83
2018-04-18T01:38:01.811Z,101451.45
2018-04-18T01:40:29.417Z,101447.26
2018-04-18T01:42:57.125Z,101451.19
2018-04-18T01:45:24.838Z,101445.90
2018-04-18T01:47:52.283Z,101443.20
2018-04-18T01:50:20.347Z,101444.54
2018-04-18T01:52:47.742Z,101454.63
2018-04-18T01:55:15.128Z,101456.96
2018-04-18T01:57:42.552Z,101451.78
2018-04-18T02:00:10.146Z,101453.00
2018-04-18T02:02:37.516Z,101458.16
2018-04-18T02:05:04.902Z,101452.59
2018-04-18T02:07:32.326Z,101459.92
2018-04-18T02:09:59.738Z,101455.96
2018-04-18T02:12:27.124Z,101458.45
2018-04-18T02:14:54.654Z,101461.75
2018-04-18T02:17:22.923Z,101464.94
2018-04-18T02:19:50.330Z,101466.34
2018-04-18T02:22:17.740Z,101470.73
2018-04-18T02:24:45.134Z,101473.22
2018-04-18T02:27:12.636Z,101479.41
2018-04-18T02:29:40.252Z,101477.05
2018-04-18T02:32:07.713Z,101474.01
2018-04-18T02:34:35.197Z,101477.10
2018-04-18T02:37:02.617Z,101481.56
2018-04-18T02:39:30.028Z,101489.90
2018-04-18T02:41:57.712Z,101488.23
2018-04-18T02:44:26.407Z,101489.69
2018-04-18T02:46:53.838Z,101492.83
2018-04-18T02:49:21.287Z,101494.08
2018-04-18T02:51:48.795Z,101493.27
2018-04-18T02:54:16.528Z,101497.17
2018-04-18T02:56:44.312Z,101506.31
2018-04-18T02:59:11.690Z,101513.28
2018-04-18T03:01:39.102Z,101514.51
2018-04-18T03:04:06.493Z,101508.00
2018-04-18T03:06:33.956Z,101511.03
2018-04-18T03:09:01.331Z,101516.73
2018-04-18T03:11:28.733Z,101513.64
2018-04-18T03:13:56.206Z,101514.08
2018-04-18T03:16:23.590Z,101509.34
2018-04-18T03:18:51.112Z,101514.14
2018-04-18T03:21:18.503Z,101515.13
2018-04-18T03:23:46.854Z,101515.77
2018-04-18T03:26:14.225Z,101519.34
2018-04-18T03:28:41.797Z,101518.25
2018-04-18T03:31:09.235Z,101513.91
2018-04-18T03:33:36.707Z,101518.80
2018-04-18T03:36:04.079Z,101518.17
2018-04-18T03:38:31.522Z,101517.47
2018-04-18T03:40:58.962Z,101514.38
2018-04-18T03:43:26.434Z,101521.59
2018-04-18T03:45:53.853Z,101518.30
2018-04-18T03:48:21.273Z,101512.86
2018-04-18T03:50:48.656Z,101517.69
2018-04-18T03:53:16.127Z,101518.65
2018-04-18T03:55:44.096Z,101521.13
2018-04-18T03:58:11.506Z,101527.74
2018-04-18T04:00:38.921Z,101533.72
2018-04-18T04:03:06.359Z,101536.30
2018-04-18T04:05:33.743Z,101537.68
2018-04-18T04:08:01.200Z,101538.80
2018-04-18T04:10:28.613Z,101542.86
2018-04-18T04:12:56.131Z,101540.89
2018-04-18T04:15:23.522Z,101543.89
2018-04-18T04:18:02.627Z,101539.70
2018-04-18T04:20:41.808Z,101547.05
2018-04-18T04:23:20.856Z,101548.97
2018-04-18T04:25:48.250Z,101550.72
2018-04-18T04:28:15.759Z,101552.37
2018-04-18T04:30:43.183Z,101555.61
2018-04-18T04:33:10.578Z,101560.28
2018-04-18T04:35:37.988Z,101554.14
2018-04-18T04:38:05.392Z,101551.91
2018-04-18T04:40:32.786Z,101557.35
2018-04-18T04:43:00.171Z,101558.97
2018-04-18T04:45:28.482Z,101555.13
2018-04-18T04:47:55.879Z,101555.56
2018-04-18T04:50:23.300Z,101555.59
2018-04-18T04:52:50.707Z,101549.46
2018-04-18T04:55:18.107Z,101556.03
2018-04-18T04:57:46.413Z,101562.70
2018-04-18T05:00:13.807Z,101564.11
2018-04-18T05:02:41.220Z,101563.08
2018-04-18T05:05:08.606Z,101563.20
2018-04-18T05:07:36.011Z,101562.42
2018-04-18T05:10:03.403Z,101560.44
2018-04-18T05:12:30.800Z,101566.77
2018-04-18T05:14:58.283Z,101571.73
2018-04-18T05:17:25.691Z,101571.68
2018-04-18T05:19:53.086Z,101569.15
2018-04-18T05:22:20.603Z,101571.72
2018-04-18T05:24:48.010Z,101578.52
2018-04-18T05:27:15.378Z,101580.20
2018-04-18T05:29:42.762Z,101590.02
2018-04-18T05:32:10.155Z,101594.70
2018-04-18T05:34:37.976Z,101599.16
2018-04-18T05:37:05.656Z,101600.80
2018-04-18T05:39:33.111Z,101599.09
2018-04-18T05:42:00.487Z,101608.50
2018-04-18T05:44:28.003Z,101610.28
2018-04-18T05:46:55.381Z,101612.23
2018-04-18T05:49:23.318Z,101608.84
2018-04-18T05:51:50.747Z,101609.79
2018-04-18T05:54:18.392Z,101609.09
2018-04-18T05:56:46.000Z,101610.28
2018-04-18T05:59:13.409Z,101614.59
2018-04-18T06:01:40.852Z,101614.91
2018-04-18T06:04:08.281Z,101623.30
2018-04-18T06:06:35.747Z,101615.20
2018-04-18T06:09:05.536Z,101615.94
2018-04-18T06:11:32.963Z,101621.02
2018-04-18T06:14:00.444Z,101619.52
2018-04-18T06:16:27.850Z,101626.72
2018-04-18T06:18:55.250Z,101622.59
2018-04-18T06:21:22.701Z,101621.97
2018-04-18T06:23:50.067Z,101626.77
2018-04-18T06:26:17.552Z,101626.20
2018-04-18T06:28:44.906Z,101623.13
2018-04-18T06:31:13.202Z,101623.42
2018-04-18T06:33:40.630Z,101623.30
2018-04-18T06:36:07.971Z,101617.98
2018-04-18T06:38:35.625Z,101622.23
2018-04-18T06:41:02.995Z,101619.78
2018-04-18T06:43:30.390Z,101621.06
2018-04-18T06:45:57.946Z,101624.45
2018-04-18T06:48:25.315Z,101620.74
2018-04-18T06:50:52.707Z,101623.48
2018-04-18T06:53:20.143Z,101625.84
2018-04-18T06:55:47.533Z,101627.56
2018-04-18T06:58:14.926Z,101629.45
2018-04-18T07:00:42.392Z,101622.83
2018-04-18T07:03:09.860Z,101627.57
2018-04-18T07:05:37.235Z,101628.08
2018-04-18T07:08:04.894Z,101633.81
2018-04-18T07:10:32.261Z,101636.89
2018-04-18T07:13:04.525Z,101636.39
2018-04-18T07:15:34.845Z,101640.27
2018-04-18T07:18:02.438Z,101642.55
2018-04-18T07:20:29.829Z,101642.48
2018-04-18T07:22:57.219Z,101641.82
2018-04-18T07:25:24.650Z,101640.17
2018-04-18T07:27:52.078Z,101642.56
2018-04-18T07:30:19.461Z,101648.64
2018-04-18T07:32:46.899Z,101650.27
2018-04-18T07:35:14.280Z,101651.42
2018-04-18T07:37:41.668Z,101654.45
2018-04-18T07:40:09.081Z,101651.78
2018-04-18T07:42:36.455Z,101649.80
2018-04-18T07:45:03.836Z,101653.94
2018-04-18T07:47:31.227Z,101652.71
2018-04-18T07:49:58.680Z,101653.95
2018-04-18T07:52:26.091Z,101649.84
2018-04-18T07:54:53.503Z,101658.23
2018-04-18T07:57:20.895Z,101653.17
2018-04-18T07:59:48.347Z,101656.39
2018-04-18T08:02:15.720Z,101659.16
2018-04-18T08:04:43.133Z,101654.61
2018-04-18T08:07:10.614Z,101658.77
2018-04-18T08:09:38.092Z,101661.55
2018-04-18T08:12:05.502Z,101662.90
2018-04-18T08:14:32.899Z,101664.73
2018-04-18T08:17:00.343Z,101661.09
2018-04-18T08:19:27.847Z,101665.31
2018-04-18T08:21:55.251Z,101668.14
2018-04-18T08:24:22.626Z,101675.66
2018-04-18T08:26:50.120Z,101680.23
2018-04-18T08:29:17.535Z,101684.61
2018-04-18T08:31:44.909Z,101679.23
2018-04-18T08:34:12.420Z,101687.20
2018-04-18T08:36:39.806Z,101679.66
2018-04-18T08:39:07.211Z,101682.14
2018-04-18T08:41:34.600Z,101683.45
2018-04-18T08:44:02.165Z,101683.77
2018-04-18T08:46:29.562Z,101681.77
2018-04-18T08:48:56.971Z,101680.66
2018-04-18T08:51:24.375Z,101681.84
2018-04-18T08:53:51.790Z,101685.39
2018-04-18T08:56:19.237Z,101683.45
2018-04-18T08:58:46.619Z,101685.83
2018-04-18T09:01:14.378Z,101681.94
2018-04-18T09:03:41.854Z,101681.03
2018-04-18T09:06:09.260Z,101686.34
2018-04-18T09:08:36.738Z,101690.44
2018-04-18T09:11:04.173Z,101688.08
2018-04-18T09:13:31.586Z,101689.95
2018-04-18T09:15:59.084Z,101687.59
2018-04-18T09:18:26.494Z,101683.38
2018-04-18T09:20:53.898Z,101682.17
2018-04-18T09:23:21.284Z,101682.73
2018-04-18T09:25:48.718Z,101682.34
2018-04-18T09:28:16.069Z,101682.78
2018-04-18T09:30:43.493Z,101675.19
2018-04-18T09:33:10.879Z,101678.87
2018-04-18T09:35:38.265Z,101670.42
2018-04-18T09:38:05.684Z,101674.84
2018-04-18T09:40:33.123Z,101677.13
2018-04-18T09:43:00.603Z,101675.91
2018-04-18T09:45:28.718Z,101674.31
2018-04-18T09:47:56.125Z,101677.55
2018-04-18T09:50:23.480Z,101675.47
2018-04-18T09:52:50.890Z,101663.95
2018-04-18T09:55:18.255Z,101675.50
2018-04-18T09:57:46.178Z,101670.12
2018-04-18T10:00:13.581Z,101668.91
2018-04-18T10:02:41.022Z,101667.69
2018-04-18T10:05:08.387Z,101665.67
2018-04-18T10:07:35.830Z,101674.41
2018-04-18T10:10:03.204Z,101665.36
2018-04-18T10:12:30.602Z,101671.53
2018-04-18T10:14:58.014Z,101663.95
2018-04-18T10:17:25.430Z,101659.48
2018-04-18T10:19:52.842Z,101661.66
2018-04-18T10:22:20.632Z,101662.45
2018-04-18T10:24:48.139Z,101662.77
2018-04-18T10:27:15.586Z,101662.77
2018-04-18T10:29:43.093Z,101654.47
2018-04-18T10:32:10.658Z,101663.31
2018-04-18T10:34:38.064Z,101656.00
2018-04-18T10:37:05.434Z,101664.00
2018-04-18T10:39:34.576Z,101651.58
2018-04-18T10:42:01.966Z,101647.04
2018-04-18T10:44:29.472Z,101656.78
2018-04-18T10:46:56.849Z,101648.56
2018-04-18T10:49:24.311Z,101648.41
2018-04-18T10:51:51.766Z,101648.13
2018-04-18T10:54:19.312Z,101630.73
2018-04-18T10:56:47.181Z,101640.45
2018-04-18T10:59:14.607Z,101640.20
2018-04-18T11:01:42.398Z,101637.23
2018-04-18T11:04:09.808Z,101627.70
2018-04-18T11:06:37.193Z,101628.27
2018-04-18T11:09:05.394Z,101628.81
2018-04-18T11:11:32.813Z,101623.64
2018-04-18T11:14:00.317Z,101628.98
2018-04-18T11:16:27.720Z,101629.06
2018-04-18T11:18:55.098Z,101628.69
2018-04-18T11:21:22.506Z,101627.80
2018-04-18T11:23:49.882Z,101624.47
2018-04-18T11:26:17.325Z,101623.77
2018-04-18T11:28:44.711Z,101615.99
2018-04-18T11:31:12.141Z,101616.02
2018-04-18T11:33:39.557Z,101613.44
2018-04-18T11:36:06.983Z,101619.16
2018-04-18T11:38:34.379Z,101605.66
2018-04-18T11:41:01.767Z,101610.45
2018-04-18T11:43:29.149Z,101599.58
2018-04-18T11:45:56.539Z,101605.22
2018-04-18T11:48:23.998Z,101599.06
2018-04-18T11:50:51.425Z,101596.44
2018-04-18T11:53:18.819Z,101594.16
2018-04-18T11:55:46.198Z,101589.73
2018-04-18T11:58:13.579Z,101588.28
2018-04-18T12:00:40.973Z,101591.73
2018-04-18T12:03:09.005Z,101585.38
2018-04-18T12:05:36.454Z,101591.45
2018-04-18T12:08:03.843Z,101587.30
2018-04-18T12:10:31.243Z,101591.81
2018-04-18T12:12:58.643Z,101591.31
2018-04-18T12:15:26.073Z,101579.95
2018-04-18T12:17:53.670Z,101583.87
2018-04-18T12:20:21.127Z,101585.17
2018-04-18T12:22:48.969Z,101584.59
2018-04-18T12:25:16.346Z,101578.39
2018-04-18T12:27:43.885Z,101573.47
2018-04-18T12:30:11.406Z,101572.83
2018-04-18T12:32:38.869Z,101569.28
2018-04-18T12:35:06.301Z,101567.10
2018-04-18T12:37:33.728Z,101559.59
2018-04-18T12:40:01.510Z,101567.25
2018-04-18T12:42:29.077Z,101560.84
2018-04-18T12:44:56.528Z,101564.66
2018-04-18T12:47:23.906Z,101563.13
2018-04-18T12:49:52.220Z,101563.52
2018-04-18T12:52:19.589Z,101556.66
2018-04-18T12:54:47.035Z,101553.47
2018-04-18T12:57:14.443Z,101539.60
2018-04-18T12:59:41.843Z,101545.17
2018-04-18T13:02:09.236Z,101543.54
2018-04-18T13:04:36.623Z,101542.94
2018-04-18T13:07:04.017Z,101536.26
2018-04-18T13:09:32.553Z,101526.94
2018-04-18T13:11:59.987Z,101535.00
2018-04-18T13:14:27.515Z,101533.33
2018-04-18T13:16:54.934Z,101527.70
2018-04-18T13:19:26.287Z,101533.16
2018-04-18T13:21:53.764Z,101525.45
2018-04-18T13:24:21.320Z,101525.61
2018-04-18T13:26:48.732Z,101520.03
2018-04-18T13:29:16.130Z,101524.23
2018-04-18T13:31:43.732Z,101521.27
2018-04-18T13:34:11.143Z,101520.98
2018-04-18T13:36:38.630Z,101513.30
2018-04-18T13:39:06.071Z,101509.56
2018-04-18T13:41:33.527Z,101510.52
2018-04-18T13:44:02.014Z,101508.50
2018-04-18T13:46:30.023Z,101513.12
2018-04-18T13:48:57.947Z,101505.09
2018-04-18T13:51:25.642Z,101502.08
2018-04-18T13:53:53.955Z,101502.07
2018-04-18T13:56:21.670Z,101507.14
2018-04-18T13:58:49.607Z,101502.59
2018-04-18T14:01:17.292Z,101501.19
2018-04-18T14:03:44.976Z,101498.98
2018-04-18T14:06:12.404Z,101500.93
2018-04-18T14:08:41.436Z,101498.14
2018-04-18T14:11:09.002Z,101495.42
2018-04-18T14:13:36.511Z,101491.22
2018-04-18T14:16:04.052Z,101481.94
2018-04-18T14:18:31.508Z,101486.02
2018-04-18T14:20:58.997Z,101492.59
2018-04-18T14:23:26.452Z,101481.55
2018-04-18T14:25:53.833Z,101476.80
2018-04-18T14:28:21.489Z,101483.32
2018-04-18T14:30:48.926Z,101476.24
2018-04-18T14:33:16.361Z,101467.65
2018-04-18T14:35:43.790Z,101462.79
2018-04-18T14:38:11.258Z,101465.98
2018-04-18T14:40:40.173Z,101463.09
2018-04-18T14:43:07.790Z,101462.80
2018-04-18T14:45:35.238Z,101460.79
2018-04-18T14:48:02.864Z,101459.77
2018-04-18T14:50:30.516Z,101455.19
2018-04-18T14:52:57.966Z,101453.11
2018-04-18T14:55:25.341Z,101454.34
2018-04-18T14:57:52.782Z,101447.33
2018-04-18T15:00:20.184Z,101448.16
2018-04-18T15:02:47.873Z,101447.30
2018-04-18T15:05:15.313Z,101452.00
2018-04-18T15:07:42.860Z,101439.20
2018-04-18T15:10:10.234Z,101445.16
2018-04-18T15:12:37.731Z,101439.53
2018-04-18T15:15:05.103Z,101437.72
2018-04-18T15:17:32.630Z,101433.98
2018-04-18T15:20:00.104Z,101434.71
2018-04-18T15:22:27.670Z,101437.92
2018-04-18T15:24:55.047Z,101433.44
2018-04-18T15:27:22.456Z,101433.19
2018-04-18T15:29:49.915Z,101428.52
2018-04-18T15:32:17.332Z,101436.20
2018-04-18T15:34:44.728Z,101429.31
2018-04-18T15:37:12.147Z,101433.13
2018-04-18T15:39:39.591Z,101434.70
2018-04-18T15:42:06.984Z,101433.23
2018-04-18T15:44:34.514Z,101426.86
2018-04-18T15:47:01.837Z,101429.91
2018-04-18T15:49:29.270Z,101425.84
2018-04-18T15:51:56.975Z,101427.04
2018-04-18T15:54:24.363Z,101434.98
2018-04-18T15:56:51.774Z,101432.19
2018-04-18T15:59:19.175Z,101427.70
2018-04-18T16:01:46.630Z,101433.61
2018-04-18T16:04:15.010Z,101429.13
2018-04-18T16:06:42.570Z,101424.59
2018-04-18T16:09:09.985Z,101428.88
2018-04-18T16:11:37.388Z,101428.58
2018-04-18T16:14:04.769Z,101414.15
2018-04-18T16:16:32.161Z,101425.56
2018-04-18T16:18:59.577Z,101419.88
2018-04-18T16:21:27.004Z,101423.80
2018-04-18T16:23:54.428Z,101416.82
2018-04-18T16:26:21.949Z,101418.36
2018-04-18T16:28:49.422Z,101413.31
2018-04-18T16:31:17.114Z,101411.80
2018-04-18T16:33:44.516Z,101413.91
2018-04-18T16:36:11.962Z,101420.27
2018-04-18T16:38:46.213Z,101417.77
2018-04-18T16:41:13.609Z,101422.59
2018-04-18T16:43:44.307Z,101417.75
2018-04-18T16:46:11.700Z,101420.23
2018-04-18T16:48:39.484Z,101422.39
2018-04-18T16:51:06.946Z,101418.80
2018-04-18T16:53:34.339Z,101412.73
2018-04-18T16:56:01.710Z,101415.64
2018-04-18T16:58:29.109Z,101416.77
2018-04-18T17:00:56.505Z,101418.52
2018-04-18T17:03:23.975Z,101416.33
2018-04-18T17:05:51.414Z,101417.38
2018-04-18T17:08:18.836Z,101412.45
2018-04-18T17:10:46.226Z,101411.26
2018-04-18T17:13:13.617Z,101412.45
2018-04-18T17:15:41.123Z,101412.58
2018-04-18T17:18:08.765Z,101416.28
2018-04-18T17:20:40.859Z,101411.96
2018-04-18T17:23:13.947Z,101417.55
2018-04-18T17:25:41.566Z,101409.95
2018-04-18T17:28:08.943Z,101415.31
2018-04-18T17:30:36.356Z,101414.30
2018-04-18T17:33:03.798Z,101417.22
2018-04-18T17:35:31.186Z,101419.65
2018-04-18T17:37:58.567Z,101414.66
2018-04-18T17:40:25.951Z,101403.33
2018-04-18T17:42:53.347Z,101406.47
2018-04-18T17:45:20.739Z,101402.13
2018-04-18T17:47:48.190Z,101402.13
2018-04-18T17:50:27.221Z,101405.00
2018-04-18T17:53:01.654Z,101402.53
2018-04-18T17:55:31.270Z,101396.09
2018-04-18T17:57:58.702Z,101404.14
2018-04-18T18:00:26.099Z,101400.46
2018-04-18T18:02:53.645Z,101399.59
2018-04-18T18:05:21.081Z,101397.01
2018-04-18T18:07:48.511Z,101393.27
2018-04-18T18:10:15.908Z,101399.84
2018-04-18T18:12:43.378Z,101398.14
2018-04-18T18:15:10.784Z,101407.00
2018-04-18T18:17:38.208Z,101415.23
2018-04-18T18:37:40.439Z,101424.95
2018-04-18T18:40:07.851Z,101425.16
2018-04-18T18:42:35.268Z,101430.80
2018-04-18T18:45:02.666Z,101437.56
2018-04-18T18:47:30.082Z,101437.53
2018-04-18T18:49:57.483Z,101435.00
2018-04-18T18:52:24.979Z,101437.75
2018-04-18T18:54:52.905Z,101432.97
2018-04-18T18:57:20.320Z,101442.98
2018-04-18T18:59:47.699Z,101442.12
2018-04-18T19:02:15.109Z,101435.12
2018-04-18T19:04:42.486Z,101440.39
2018-04-18T19:07:11.563Z,101436.43
2018-04-18T19:09:39.005Z,101441.23
2018-04-18T19:12:06.429Z,101449.63
2018-04-18T19:14:33.835Z,101457.47
2018-04-18T19:17:01.254Z,101454.44
2018-04-18T19:19:28.917Z,101457.92
2018-04-18T19:21:57.188Z,101461.39
2018-04-18T19:24:24.588Z,101464.87
2018-04-18T19:26:52.014Z,101468.36
2018-04-18T19:29:19.411Z,101466.16
2018-04-18T19:31:46.844Z,101470.05
2018-04-18T19:34:14.241Z,101464.17
2018-04-18T19:36:42.882Z,101472.30
2018-04-18T19:39:10.316Z,101470.58
2018-04-18T19:41:37.726Z,101468.73
2018-04-18T19:44:05.131Z,101462.43
2018-04-18T19:46:32.539Z,101466.83
2018-04-18T19:48:59.939Z,101462.42
2018-04-18T19:51:27.340Z,101464.51
2018-04-18T19:53:54.732Z,101466.65
2018-04-18T19:56:24.449Z,101465.34
2018-04-18T19:58:51.830Z,101466.13
2018-04-18T20:01:19.209Z,101464.14
2018-04-18T20:03:46.582Z,101464.50
2018-04-18T20:06:13.970Z,101459.36
2018-04-18T20:08:41.330Z,101463.93
2018-04-18T20:11:08.744Z,101455.72
2018-04-18T20:13:36.379Z,101458.48
2018-04-18T20:16:03.844Z,101460.55
2018-04-18T20:18:31.208Z,101460.95
2018-04-18T20:20:58.673Z,101461.39
2018-04-18T20:23:26.070Z,101460.98
2018-04-18T20:25:53.484Z,101457.69
2018-04-18T20:28:20.884Z,101459.63
2018-04-18T20:30:48.262Z,101451.71
2018-04-18T20:33:15.723Z,101455.08
2018-04-18T20:35:43.115Z,101453.96
2018-04-18T20:38:10.739Z,101455.89
2018-04-18T20:40:38.141Z,101460.84
2018-04-18T20:43:05.526Z,101455.18
2018-04-18T20:45:32.987Z,101456.45
2018-04-18T20:48:01.237Z,101457.89
2018-04-18T20:50:28.623Z,101449.98
2018-04-18T20:52:56.002Z,101454.04
2018-04-18T20:55:23.384Z,101450.61
2018-04-18T20:57:50.761Z,101445.58
2018-04-18T21:00:18.146Z,101448.04
2018-04-18T21:02:45.919Z,101446.41
2018-04-18T21:05:13.338Z,101448.30
2018-04-18T21:07:40.725Z,101446.27
2018-04-18T21:10:08.194Z,101443.94
2018-04-18T21:12:35.987Z,101440.11
2018-04-18T21:15:03.511Z,101444.19
2018-04-18T21:17:30.977Z,101439.88
2018-04-18T21:19:58.360Z,101436.54
2018-04-18T21:22:25.751Z,101439.69
2018-04-18T21:24:53.224Z,101440.90
2018-04-18T21:27:20.707Z,101442.48
2018-04-18T21:29:49.393Z,101438.49
2018-04-18T21:32:17.024Z,101438.02
2018-04-18T21:34:44.782Z,101440.72
2018-04-18T21:37:13.212Z,101441.13
2018-04-18T21:39:40.827Z,101441.70
2018-04-18T21:42:08.593Z,101443.13
2018-04-18T21:44:36.257Z,101443.56
2018-04-18T21:47:03.980Z,101448.62
2018-04-18T21:49:31.751Z,101440.78
2018-04-18T21:51:59.748Z,101436.48
2018-04-18T21:54:27.452Z,101436.66
2018-04-18T21:56:55.175Z,101440.20
2018-04-18T21:59:22.876Z,101445.80
2018-04-18T22:01:50.599Z,101442.77
2018-04-18T22:04:18.224Z,101439.77
2018-04-18T22:06:46.237Z,101439.80
2018-04-18T22:09:13.940Z,101440.03
2018-04-18T22:11:41.697Z,101443.30
2018-04-18T22:14:09.370Z,101443.45
2018-04-18T22:16:37.054Z,101446.23
2018-04-18T22:19:05.188Z,101446.62
2018-04-18T22:21:32.589Z,101443.53
2018-04-18T22:23:59.981Z,101445.02
2018-04-18T22:26:27.415Z,101446.22
2018-04-18T22:28:54.803Z,101444.13
2018-04-18T22:31:22.238Z,101448.92
2018-04-18T22:33:49.663Z,101445.73
2018-04-18T22:36:17.044Z,101444.53
2018-04-18T22:38:44.500Z,101439.42
2018-04-18T22:41:12.313Z,101444.00
2018-04-18T22:43:39.783Z,101445.45
2018-04-18T22:46:08.232Z,101444.53
2018-04-18T22:48:35.655Z,101442.77
2018-04-18T22:51:03.140Z,101444.03
2018-04-18T22:53:30.528Z,101440.45
2018-04-18T22:55:57.932Z,101447.53
2018-04-18T22:58:25.552Z,101446.13
2018-04-18T23:00:53.204Z,101446.97
2018-04-18T23:03:20.690Z,101446.81
2018-04-18T23:05:48.090Z,101446.22
2018-04-18T23:08:15.537Z,101443.47
2018-04-18T23:10:42.920Z,101442.36
2018-04-18T23:13:11.466Z,101442.06
2018-04-18T23:15:38.851Z,101440.64
2018-04-18T23:18:06.235Z,101439.84
2018-04-18T23:20:33.707Z,101436.94
2018-04-18T23:23:01.105Z,101431.05
2018-04-18T23:25:28.480Z,101428.25
2018-04-18T23:27:55.910Z,101424.39
2018-04-18T23:30:23.292Z,101422.27
2018-04-18T23:32:50.697Z,101418.94
2018-04-18T23:35:18.103Z,101420.47
2018-04-18T23:37:45.503Z,101419.97
2018-04-18T23:40:13.598Z,101424.43
2018-04-18T23:42:41.074Z,101420.52
2018-04-18T23:45:08.509Z,101427.97
2018-04-18T23:47:35.900Z,101421.81
2018-04-18T23:50:03.302Z,101422.06
2018-04-18T23:52:30.672Z,101420.55
2018-04-18T23:54:58.055Z,101424.51
2018-04-18T23:57:25.726Z,101422.92
2018-04-18T23:59:53.108Z,101417.52
